Time;durP1;ratioP1;P1;durP2;ratioP2;P2;SDS_P1;SDS_P2;PMS_P1;PMS_P2;Temp;Humidity;BMP_temperature;BMP_pressure;BME280_temperature;BME280_humidity;BME280_pressure;Samples;Min_cycle;Max_cycle;Signal;HPM_P1;HPM_P2
2021/11/29 00:00:33;;;;;;;37.77;19.17;;;5.30;99.90;;;;;;5091801;28;20193;-82
2021/11/29 00:03:04;;;;;;;34.63;18.27;;;5.30;99.90;;;;;;5093380;28;20182;-81
2021/11/29 00:05:30;;;;;;;42.00;22.17;;;;;;;;;;5094029;28;20235;-82
2021/11/29 00:07:59;;;;;;;62.80;30.17;;;5.30;99.90;;;;;;5093403;28;20182;-81
2021/11/29 00:10:25;;;;;;;54.20;26.63;;;5.30;99.90;;;;;;5093910;28;20229;-82
2021/11/29 00:12:51;;;;;;;56.63;26.33;;;5.30;99.90;;;;;;5093337;28;20179;-82
2021/11/29 00:15:17;;;;;;;51.47;24.20;;;5.30;99.90;;;;;;5094375;28;20178;-81
2021/11/29 00:17:43;;;;;;;38.80;19.47;;;5.30;99.90;;;;;;5093843;28;20606;-81
2021/11/29 00:20:09;;;;;;;40.40;20.17;;;5.30;99.90;;;;;;5093094;28;20178;-81
2021/11/29 00:22:35;;;;;;;60.03;26.13;;;5.30;99.90;;;;;;5092668;28;20231;-82
2021/11/29 00:25:02;;;;;;;50.83;25.13;;;5.30;99.90;;;;;;5093115;28;20588;-82
2021/11/29 00:27:27;;;;;;;42.53;20.30;;;5.30;99.90;;;;;;5075768;28;20186;-82
2021/11/29 00:29:53;;;;;;;32.53;17.30;;;;;;;;;;5076097;28;20534;-82
2021/11/29 00:32:19;;;;;;;34.13;17.30;;;5.20;99.90;;;;;;5076187;28;20253;-81
2021/11/29 00:34:45;;;;;;;29.60;16.00;;;5.20;99.90;;;;;;5093681;28;20649;-81
2021/11/29 00:37:12;;;;;;;32.37;16.33;;;5.20;99.90;;;;;;5076105;28;20190;-81
2021/11/29 00:39:38;;;;;;;33.80;17.27;;;5.20;99.90;;;;;;5093501;28;20178;-81
2021/11/29 00:42:04;;;;;;;38.27;16.67;;;5.20;99.90;;;;;;5094340;28;20540;-81
2021/11/29 00:44:30;;;;;;;33.00;18.00;;;5.20;99.90;;;;;;5093323;28;20263;-82
2021/11/29 00:46:56;;;;;;;38.73;19.40;;;5.20;99.90;;;;;;5093802;28;20642;-81
2021/11/29 00:49:22;;;;;;;35.23;16.40;;;5.20;99.90;;;;;;5094049;28;20205;-81
2021/11/29 00:51:48;;;;;;;30.57;17.63;;;5.20;99.90;;;;;;5093639;28;20208;-82
2021/11/29 00:54:14;;;;;;;31.57;15.83;;;5.20;99.90;;;;;;5093606;28;20590;-81
2021/11/29 00:56:40;;;;;;;29.23;15.03;;;5.20;99.90;;;;;;5093439;28;20177;-82
2021/11/29 00:59:06;;;;;;;28.23;15.70;;;5.10;99.90;;;;;;5093806;28;20261;-81
2021/11/29 01:01:32;;;;;;;28.17;15.30;;;5.10;99.90;;;;;;5075450;28;20669;-82
2021/11/29 01:03:58;;;;;;;30.70;15.43;;;;;;;;;;5092368;28;20178;-81
2021/11/29 01:06:24;;;;;;;27.50;15.43;;;;;;;;;;5093538;28;20202;-81
2021/11/29 01:08:50;;;;;;;37.23;17.77;;;;;;;;;;5093125;28;20182;-82
2021/11/29 01:11:17;;;;;;;35.27;18.27;;;;;;;;;;5092059;28;20233;-81
2021/11/29 01:13:43;;;;;;;35.80;18.00;;;;;;;;;;5093401;28;20227;-82
2021/11/29 01:16:09;;;;;;;38.17;18.40;;;;;;;;;;5093566;28;20238;-82
2021/11/29 01:18:35;;;;;;;38.17;19.53;;;;;;;;;;5093320;28;20175;-82
2021/11/29 01:21:01;;;;;;;39.80;18.93;;;;;;;;;;5093043;28;20174;-81
2021/11/29 01:23:27;;;;;;;38.80;19.80;;;;;;;;;;5092316;28;20543;-81
2021/11/29 01:25:54;;;;;;;43.67;19.17;;;5.10;99.90;;;;;;5093171;28;20237;-82
2021/11/29 01:28:22;;;;;;;41.97;18.83;;;5.00;99.90;;;;;;5093475;28;20186;-81
2021/11/29 01:30:48;;;;;;;65.47;23.27;;;5.00;99.90;;;;;;5093107;28;20236;-82
2021/11/29 01:33:14;;;;;;;76.97;24.87;;;5.00;99.90;;;;;;5092176;28;20198;-81
2021/11/29 01:35:40;;;;;;;76.13;23.20;;;5.00;99.90;;;;;;5092822;28;20654;-81
2021/11/29 01:38:06;;;;;;;46.73;19.73;;;5.00;99.90;;;;;;5093113;28;20225;-81
2021/11/29 01:40:33;;;;;;;57.23;20.00;;;5.00;99.90;;;;;;5093505;28;20253;-81
2021/11/29 01:43:04;;;;;;;30.10;15.73;;;5.00;99.90;;;;;;5075628;28;20189;-81
2021/11/29 01:45:32;;;;;;;28.50;15.33;;;5.00;99.90;;;;;;5092173;28;20206;-81
2021/11/29 01:47:58;;;;;;;32.37;16.07;;;5.00;99.90;;;;;;5093471;28;20175;-81
2021/11/29 01:50:24;;;;;;;35.27;17.23;;;5.00;99.90;;;;;;5093513;28;20182;-81
2021/11/29 01:52:50;;;;;;;29.40;16.03;;;5.00;99.90;;;;;;5093295;28;20187;-81
2021/11/29 01:55:17;;;;;;;33.20;16.83;;;5.00;99.90;;;;;;5092047;28;20556;-81
2021/11/29 01:57:43;;;;;;;33.80;16.37;;;5.00;99.90;;;;;;5091771;28;20266;-81
2021/11/29 02:00:12;;;;;;;36.03;17.60;;;4.90;99.90;;;;;;5093323;28;20273;-81
2021/11/29 02:02:38;;;;;;;32.23;16.23;;;5.00;99.90;;;;;;5091928;28;20174;-82
2021/11/29 02:05:05;;;;;;;34.63;16.50;;;5.00;99.90;;;;;;5075280;28;20214;-81
2021/11/29 02:07:31;;;;;;;32.43;16.13;;;5.00;99.90;;;;;;5092939;28;20175;-81
2021/11/29 02:09:57;;;;;;;33.20;16.83;;;4.90;99.90;;;;;;5093511;28;20182;-81
2021/11/29 02:12:22;;;;;;;33.07;17.07;;;5.00;99.90;;;;;;5092505;28;20275;-82
2021/11/29 02:14:49;;;;;;;34.67;16.80;;;5.00;99.90;;;;;;5092169;28;20263;-82
2021/11/29 02:17:16;;;;;;;33.47;15.67;;;5.00;99.90;;;;;;5092417;28;20182;-81
2021/11/29 02:19:44;;;;;;;35.20;16.80;;;4.70;99.90;;;;;;5075134;28;20650;-82
2021/11/29 02:22:10;;;;;;;36.57;18.57;;;5.00;99.90;;;;;;5091954;28;20530;-81
2021/11/29 02:24:37;;;;;;;39.60;18.37;;;5.00;99.90;;;;;;5092127;28;20206;-81
2021/11/29 02:27:05;;;;;;;35.23;16.63;;;5.00;99.90;;;;;;5093200;28;20541;-81
2021/11/29 02:29:31;;;;;;;30.80;15.40;;;;;;;;;;5094574;28;20179;-81
2021/11/29 02:31:57;;;;;;;33.87;16.00;;;;;;;;;;5095980;28;20179;-81
2021/11/29 02:34:26;;;;;;;36.53;16.20;;;5.10;99.90;;;;;;5098004;28;20185;-81
2021/11/29 02:36:54;;;;;;;26.23;13.90;;;5.10;99.90;;;;;;5102527;28;20171;-80
2021/11/29 02:39:20;;;;;;;28.37;14.97;;;;;;;;;;5112373;28;20211;-81
2021/11/29 02:41:47;;;;;;;30.70;14.97;;;5.10;99.90;;;;;;5118644;28;20235;-84
2021/11/29 02:44:13;;;;;;;27.13;14.50;;;;;;;;;;5120470;28;20155;-81
2021/11/29 02:46:40;;;;;;;23.80;12.83;;;5.30;99.90;;;;;;5121384;28;20173;-81
2021/11/29 02:49:08;;;;;;;29.87;15.03;;;5.40;99.90;;;;;;5117795;28;20186;-80
2021/11/29 02:51:36;;;;;;;21.97;12.03;;;5.40;99.90;;;;;;5110796;28;20174;-80
2021/11/29 02:54:10;;;;;;;29.33;14.33;;;5.20;99.90;;;;;;5109619;28;20185;-82
2021/11/29 02:56:38;;;;;;;24.40;13.43;;;5.20;99.90;;;;;;5120555;28;20181;-80
2021/11/29 02:59:13;;;;;;;22.50;12.90;;;5.40;99.90;;;;;;5120097;28;20370;-80
2021/11/29 03:01:41;;;;;;;29.80;14.80;;;5.40;99.90;;;;;;5120305;28;20158;-81
2021/11/29 03:04:07;;;;;;;27.03;14.47;;;;;;;;;;5114906;28;20219;-81
2021/11/29 03:06:33;;;;;;;19.53;10.87;;;;;;;;;;5096278;28;20612;-80
2021/11/29 03:08:59;;;;;;;21.53;12.37;;;;;;;;;;5094884;28;20190;-81
2021/11/29 03:11:27;;;;;;;18.97;10.67;;;5.80;99.90;;;;;;5100537;28;20237;-81
2021/11/29 03:13:52;;;;;;;18.50;10.80;;;5.50;99.90;;;;;;5112161;28;20186;-80
2021/11/29 03:16:18;;;;;;;16.93;10.43;;;5.30;99.90;;;;;;5114041;28;20185;-79
2021/11/29 03:18:45;;;;;;;16.20;9.80;;;5.40;99.90;;;;;;5114066;28;20204;-81
2021/11/29 03:21:15;;;;;;;19.70;10.43;;;5.40;99.90;;;;;;5113569;28;20162;-80
2021/11/29 03:23:42;;;;;;;18.17;9.90;;;5.40;99.90;;;;;;5113461;28;20178;-80
2021/11/29 03:26:10;;;;;;;17.33;11.10;;;5.40;99.90;;;;;;5111890;28;20693;-80
2021/11/29 03:28:41;;;;;;;19.17;11.63;;;5.40;99.90;;;;;;5115272;28;20276;-79
2021/11/29 03:31:07;;;;;;;18.93;11.37;;;5.30;99.90;;;;;;5113788;28;20308;-80
2021/11/29 03:33:34;;;;;;;19.87;12.00;;;5.30;99.90;;;;;;5111715;28;20533;-80
2021/11/29 03:36:00;;;;;;;20.37;10.20;;;5.30;99.90;;;;;;5112441;28;20631;-79
2021/11/29 03:38:26;;;;;;;28.07;14.27;;;;;;;;;;5113327;28;20185;-80
2021/11/29 03:40:52;;;;;;;25.10;15.40;;;5.20;99.90;;;;;;5106451;28;20203;-81
2021/11/29 03:43:18;;;;;;;39.30;21.90;;;5.20;99.90;;;;;;5094429;28;20183;-80
2021/11/29 03:45:44;;;;;;;35.43;18.80;;;;;;;;;;5093784;28;20207;-80
2021/11/29 03:48:10;;;;;;;40.17;20.87;;;5.20;99.90;;;;;;5094850;28;20179;-80
2021/11/29 03:50:36;;;;;;;45.37;21.30;;;5.20;99.90;;;;;;5077038;28;20193;-80
2021/11/29 03:53:01;;;;;;;37.90;18.57;;;5.10;99.90;;;;;;5093560;28;20200;-80
2021/11/29 03:55:27;;;;;;;55.77;25.23;;;5.10;99.90;;;;;;5060283;28;20235;-80
2021/11/29 03:57:53;;;;;;;58.27;25.50;;;5.10;99.90;;;;;;5094548;28;20177;-84
2021/11/29 04:00:19;;;;;;;60.60;25.80;;;5.00;99.90;;;;;;5094795;28;20185;-80
2021/11/29 04:02:45;;;;;;;43.43;23.20;;;5.00;99.90;;;;;;5093345;28;20183;-80
2021/11/29 04:05:11;;;;;;;55.47;26.60;;;4.90;99.90;;;;;;5094430;28;20247;-81
2021/11/29 04:07:37;;;;;;;54.23;24.57;;;4.90;99.90;;;;;;5094752;28;20189;-81
2021/11/29 04:10:04;;;;;;;46.37;22.10;;;4.80;99.90;;;;;;5094399;28;20669;-80
2021/11/29 04:12:29;;;;;;;52.37;26.20;;;4.80;99.90;;;;;;5094644;28;20229;-81
2021/11/29 04:14:55;;;;;;;55.37;23.80;;;4.70;99.90;;;;;;5076377;28;20191;-84
2021/11/29 04:17:21;;;;;;;53.20;27.47;;;4.70;99.90;;;;;;5093053;28;20181;-80
2021/11/29 04:19:46;;;;;;;57.07;25.27;;;4.70;99.90;;;;;;5094179;28;20521;-80
2021/11/29 04:22:14;;;;;;;51.60;23.43;;;4.70;99.90;;;;;;5092960;28;20263;-81
2021/11/29 04:24:42;;;;;;;47.67;20.13;;;4.70;99.90;;;;;;5094209;28;20213;-81
2021/11/29 04:27:07;;;;;;;54.90;23.17;;;4.60;99.90;;;;;;5093857;28;20193;-81
2021/11/29 04:29:38;;;;;;;61.53;26.33;;;4.60;99.90;;;;;;5076340;28;20175;-81
2021/11/29 04:32:04;;;;;;;57.57;25.57;;;4.60;99.90;;;;;;5076465;28;20185;-82
2021/11/29 04:34:29;;;;;;;60.33;25.50;;;4.60;99.90;;;;;;5092777;28;20214;-81
2021/11/29 04:36:55;;;;;;;56.40;25.47;;;;;;;;;;5094070;28;20263;-82
2021/11/29 04:39:22;;;;;;;69.20;28.20;;;4.50;99.90;;;;;;5092560;28;20187;-82
2021/11/29 04:41:49;;;;;;;64.90;26.67;;;4.50;99.90;;;;;;5094088;28;20174;-82
2021/11/29 04:44:15;;;;;;;71.33;29.10;;;4.50;99.90;;;;;;5092464;28;20627;-82
2021/11/29 04:46:41;;;;;;;80.63;29.40;;;4.50;99.90;;;;;;5086985;28;20232;-82
2021/11/29 04:49:07;;;;;;;81.07;31.17;;;4.50;99.90;;;;;;5072332;28;20712;-83
2021/11/29 04:51:33;;;;;;;63.57;27.07;;;4.40;99.90;;;;;;5072468;28;20183;-82
2021/11/29 04:53:59;;;;;;;57.27;25.17;;;4.40;99.90;;;;;;5073649;28;20258;-82
2021/11/29 04:56:24;;;;;;;60.20;25.43;;;4.40;99.90;;;;;;5071312;28;20711;-82
2021/11/29 04:58:50;;;;;;;65.83;27.50;;;4.40;99.90;;;;;;5055730;28;20187;-82
2021/11/29 05:01:16;;;;;;;62.37;25.50;;;4.40;99.90;;;;;;5073163;28;20189;-82
2021/11/29 05:03:42;;;;;;;57.23;24.67;;;4.30;99.90;;;;;;5073631;28;20647;-82
2021/11/29 05:06:08;;;;;;;66.63;27.27;;;4.30;99.90;;;;;;5072068;28;20214;-83
2021/11/29 05:08:34;;;;;;;78.07;29.43;;;4.30;99.90;;;;;;5072298;28;20194;-82
2021/11/29 05:11:01;;;;;;;72.03;28.93;;;4.30;99.90;;;;;;5072110;28;20291;-82
2021/11/29 05:13:27;;;;;;;66.50;27.40;;;4.30;99.90;;;;;;5071589;28;20171;-82
2021/11/29 05:15:53;;;;;;;79.63;29.47;;;4.20;99.90;;;;;;5072980;28;20190;-82
2021/11/29 05:18:18;;;;;;;92.37;34.63;;;4.20;99.90;;;;;;5075920;28;20207;-81
2021/11/29 05:20:45;;;;;;;75.17;30.23;;;4.20;99.90;;;;;;5072976;28;20240;-81
2021/11/29 05:23:11;;;;;;;63.93;27.57;;;4.10;99.90;;;;;;5074030;28;20185;-82
2021/11/29 05:25:38;;;;;;;72.27;29.60;;;4.10;99.90;;;;;;5078926;28;20270;-82
2021/11/29 05:28:04;;;;;;;75.87;28.90;;;3.70;99.90;;;;;;5096635;28;20167;-82
2021/11/29 05:30:30;;;;;;;82.97;32.20;;;3.90;99.90;;;;;;5082826;28;20269;-81
2021/11/29 05:32:56;;;;;;;79.80;29.30;;;3.80;99.90;;;;;;5073521;28;20604;-81
2021/11/29 05:35:22;;;;;;;76.47;29.93;;;3.60;99.90;;;;;;5085887;28;20180;-82
2021/11/29 05:37:48;;;;;;;82.13;31.27;;;;;;;;;;5097528;28;20172;-81
2021/11/29 05:40:15;;;;;;;82.47;28.87;;;;;;;;;;5087564;28;20260;-81
2021/11/29 05:42:41;;;;;;;79.47;29.47;;;;;;;;;;5073364;28;20182;-80
2021/11/29 05:45:11;;;;;;;82.33;30.00;;;2.60;99.90;;;;;;5071501;28;20636;-81
2021/11/29 05:47:37;;;;;;;77.70;29.93;;;;;;;;;;5072954;28;20186;-80
2021/11/29 05:50:07;;;;;;;92.23;35.17;;;3.10;99.90;;;;;;5071759;28;20180;-81
2021/11/29 05:52:34;;;;;;;70.03;30.87;;;3.10;99.90;;;;;;5071236;28;20179;-81
2021/11/29 05:55:00;;;;;;;83.50;32.23;;;;;;;;;;5092032;28;20699;-84
2021/11/29 05:57:26;;;;;;;71.40;28.80;;;;;;;;;;5106317;28;20289;-83
2021/11/29 05:59:52;;;;;;;77.53;29.60;;;;;;;;;;5089212;28;20193;-81
2021/11/29 06:02:18;;;;;;;75.70;29.83;;;;;;;;;;5072866;28;20197;-81
2021/11/29 06:04:44;;;;;;;73.10;31.03;;;;;;;;;;5090762;28;20208;-81
2021/11/29 06:07:10;;;;;;;81.93;28.80;;;;;;;;;;5073495;28;20252;-84
2021/11/29 06:09:36;;;;;;;66.10;26.00;;;2.80;99.90;;;;;;5092771;28;20273;-82
2021/11/29 06:12:02;;;;;;;81.47;30.23;;;;;;;;;;5110670;28;20231;-85
2021/11/29 06:14:28;;;;;;;79.40;31.73;;;2.70;99.90;;;;;;5117664;28;20195;-83
2021/11/29 06:16:54;;;;;;;90.67;31.90;;;2.50;99.90;;;;;;5096727;28;20198;-83
2021/11/29 06:19:20;;;;;;;86.03;33.60;;;;;;;;;;5075484;28;20182;-82
2021/11/29 06:21:46;;;;;;;84.87;31.63;;;;;;;;;;5092207;28;20196;-82
2021/11/29 06:24:12;;;;;;;80.37;31.00;;;2.60;99.90;;;;;;5093573;28;20726;-82
2021/11/29 06:26:39;;;;;;;79.00;29.73;;;2.50;99.90;;;;;;5092619;28;20208;-83
2021/11/29 06:29:05;;;;;;;87.00;30.73;;;2.50;99.90;;;;;;5093213;28;20288;-82
2021/11/29 06:31:31;;;;;;;84.40;28.87;;;;;;;;;;5094048;28;20272;-82
2021/11/29 06:33:58;;;;;;;95.73;32.77;;;2.40;99.90;;;;;;5092411;28;20194;-84
2021/11/29 06:36:28;;;;;;;93.40;35.00;;;2.50;99.90;;;;;;5092571;28;20222;-82
2021/11/29 06:38:56;;;;;;;68.83;29.23;;;2.40;99.90;;;;;;5093815;28;20175;-81
2021/11/29 06:41:27;;;;;;;64.10;27.87;;;2.40;99.90;;;;;;5093007;28;20665;-82
2021/11/29 06:43:52;;;;;;;75.83;32.10;;;2.40;99.90;;;;;;5092025;28;21754;-81
2021/11/29 06:46:19;;;;;;;53.87;26.67;;;2.40;99.90;;;;;;5093471;28;20213;-82
2021/11/29 06:48:45;;;;;;;60.33;26.23;;;;;;;;;;5092013;28;20772;-81
2021/11/29 06:51:11;;;;;;;62.13;25.53;;;2.30;99.90;;;;;;5091756;28;20323;-82
2021/11/29 06:53:40;;;;;;;59.47;25.60;;;2.00;99.90;;;;;;5054993;28;20184;-82
2021/11/29 06:56:06;;;;;;;45.53;20.67;;;;;;;;;;5089984;28;20314;-80
2021/11/29 06:58:32;;;;;;;48.63;20.73;;;;;;;;;;5087486;28;20183;-79
2021/11/29 07:00:58;;;;;;;42.43;19.67;;;2.00;99.90;;;;;;5092345;28;20179;-79
2021/11/29 07:03:24;;;;;;;54.77;26.00;;;;;;;;;;5093216;28;20190;-79
2021/11/29 07:05:51;;;;;;;45.70;21.57;;;;;;;;;;5081475;28;20265;-79
2021/11/29 07:08:18;;;;;;;51.83;22.47;;;2.10;99.90;;;;;;5076797;28;20193;-79
2021/11/29 07:10:45;;;;;;;40.13;16.93;;;2.10;99.90;;;;;;5086466;28;20235;-83
2021/11/29 07:13:12;;;;;;;50.13;23.43;;;2.10;99.90;;;;;;5091643;28;20214;-80
2021/11/29 07:15:39;;;;;;;45.60;22.20;;;2.10;99.90;;;;;;5091648;28;20187;-80
2021/11/29 07:18:06;;;;;;;44.47;21.77;;;2.10;99.90;;;;;;5090136;28;20178;-81
2021/11/29 07:20:33;;;;;;;45.20;23.03;;;;;;;;;;5084550;28;20186;-82
2021/11/29 07:22:59;;;;;;;55.23;23.33;;;;;;;;;;5089736;28;20206;-84
2021/11/29 07:25:25;;;;;;;51.43;25.13;;;;;;;;;;5090262;28;20220;-82
2021/11/29 07:27:51;;;;;;;45.57;21.93;;;;;;;;;;5065645;28;20285;-82
2021/11/29 07:30:20;;;;;;;36.87;17.97;;;2.00;99.90;;;;;;5085292;28;20193;-81
2021/11/29 07:32:46;;;;;;;42.23;22.37;;;;;;;;;;5073907;28;20254;-81
2021/11/29 07:35:13;;;;;;;45.93;22.30;;;2.10;99.90;;;;;;5098666;28;20648;-81
2021/11/29 07:37:41;;;;;;;37.57;17.37;;;2.20;99.90;;;;;;5075957;28;20217;-81
2021/11/29 07:40:08;;;;;;;43.73;19.90;;;1.80;99.90;;;;;;5083483;28;20179;-81
2021/11/29 07:42:34;;;;;;;39.80;21.03;;;2.00;99.90;;;;;;5077475;28;20191;-82
2021/11/29 07:44:59;;;;;;;39.77;20.00;;;1.80;99.90;;;;;;5072508;28;20725;-81
2021/11/29 07:47:26;;;;;;;41.27;21.40;;;2.00;99.90;;;;;;5055715;28;20199;-82
2021/11/29 07:49:53;;;;;;;40.90;20.87;;;2.00;99.90;;;;;;5072000;28;20305;-82
2021/11/29 07:52:19;;;;;;;36.33;17.47;;;1.90;99.90;;;;;;5080380;28;20183;-82
2021/11/29 07:54:46;;;;;;;44.63;19.07;;;1.90;99.90;;;;;;5073685;28;20726;-82
2021/11/29 07:57:13;;;;;;;29.73;14.57;;;1.80;99.90;;;;;;5088746;28;20183;-81
2021/11/29 07:59:39;;;;;;;32.00;16.80;;;1.80;99.90;;;;;;5084402;28;20271;-81
2021/11/29 08:02:05;;;;;;;36.63;19.80;;;1.80;99.90;;;;;;5080397;28;20191;-82
2021/11/29 08:04:31;;;;;;;48.20;20.83;;;;;;;;;;5077862;28;20245;-81
2021/11/29 08:06:57;;;;;;;44.67;22.80;;;1.80;99.90;;;;;;5074435;28;20202;-80
2021/11/29 08:09:23;;;;;;;36.70;17.17;;;1.80;99.90;;;;;;5075940;28;20650;-82
2021/11/29 08:11:49;;;;;;;39.40;18.57;;;;;;;;;;5073294;28;20230;-81
2021/11/29 08:14:16;;;;;;;34.57;18.37;;;1.80;99.90;;;;;;5088740;28;20190;-82
2021/11/29 08:16:41;;;;;;;43.77;19.13;;;1.90;99.90;;;;;;5089856;28;20190;-80
2021/11/29 08:19:07;;;;;;;30.77;14.07;;;1.80;99.90;;;;;;5086771;28;20696;-81
2021/11/29 08:21:32;;;;;;;36.33;16.83;;;1.80;99.90;;;;;;5089715;28;20194;-81
2021/11/29 08:23:58;;;;;;;27.90;11.13;;;1.80;99.90;;;;;;5063607;28;20581;-81
2021/11/29 08:26:27;;;;;;;29.67;17.43;;;1.80;99.90;;;;;;5091312;28;20267;-82
2021/11/29 08:28:53;;;;;;;36.77;15.53;;;1.70;99.90;;;;;;5090562;28;20190;-82
2021/11/29 08:31:18;;;;;;;39.37;17.47;;;1.80;99.90;;;;;;5070401;28;20542;-82
2021/11/29 08:33:44;;;;;;;27.70;15.63;;;3.30;99.90;;;;;;5066530;28;20550;-83
2021/11/29 08:36:10;;;;;;;30.57;15.83;;;1.80;99.90;;;;;;5086492;28;20219;-83
2021/11/29 08:38:36;;;;;;;35.97;17.17;;;1.80;99.90;;;;;;5090802;28;20192;-81
2021/11/29 08:41:02;;;;;;;32.20;15.80;;;1.80;99.90;;;;;;5092958;28;20186;-81
2021/11/29 08:43:28;;;;;;;25.17;12.33;;;1.80;99.90;;;;;;5077123;28;20175;-81
2021/11/29 08:45:54;;;;;;;27.07;14.43;;;1.80;99.90;;;;;;5074021;28;20214;-81
2021/11/29 08:48:22;;;;;;;31.53;16.70;;;1.70;99.90;;;;;;5075971;28;20206;-82
2021/11/29 08:50:53;;;;;;;29.67;14.47;;;1.80;99.90;;;;;;5077357;28;20180;-81
2021/11/29 08:53:22;;;;;;;26.07;13.50;;;1.80;99.90;;;;;;5082913;28;20188;-81
2021/11/29 08:55:49;;;;;;;23.27;12.70;;;1.80;99.90;;;;;;5091548;28;20513;-80
2021/11/29 08:58:15;;;;;;;20.00;12.20;;;1.70;99.90;;;;;;5093090;28;20194;-78
2021/11/29 09:00:44;;;;;;;22.87;14.07;;;1.70;99.90;;;;;;5084016;28;20674;-80
2021/11/29 09:03:11;;;;;;;20.33;12.93;;;1.70;99.90;;;;;;5076750;28;20194;-80
2021/11/29 09:05:39;;;;;;;19.70;11.20;;;1.60;99.90;;;;;;5073896;28;20567;-79
2021/11/29 09:08:06;;;;;;;23.03;13.10;;;1.70;99.90;;;;;;5073524;28;20187;-80
2021/11/29 09:10:32;;;;;;;27.07;14.33;;;1.70;99.90;;;;;;5055273;28;20317;-80
2021/11/29 09:12:58;;;;;;;28.83;15.23;;;1.70;99.90;;;;;;5074357;28;20624;-79
2021/11/29 09:15:24;;;;;;;27.97;15.33;;;1.70;99.90;;;;;;5074184;28;20214;-80
2021/11/29 09:17:50;;;;;;;26.37;15.27;;;1.70;99.90;;;;;;5074148;28;20175;-82
2021/11/29 09:20:19;;;;;;;20.43;13.57;;;1.70;99.90;;;;;;5094603;28;20190;-83
2021/11/29 09:22:45;;;;;;;24.67;14.50;;;1.70;99.90;;;;;;5103301;28;20189;-82
2021/11/29 09:25:12;;;;;;;22.63;14.47;;;1.80;99.90;;;;;;5117919;28;20217;-82
2021/11/29 09:27:39;;;;;;;24.50;15.77;;;1.80;99.90;;;;;;5118305;28;20158;-89
2021/11/29 09:30:07;;;;;;;17.00;10.50;;;1.80;99.90;;;;;;5117952;28;20161;-82
2021/11/29 09:32:37;;;;;;;17.30;11.10;;;1.80;99.90;;;;;;5117497;28;20172;-81
2021/11/29 09:35:07;;;;;;;17.77;11.53;;;1.80;99.90;;;;;;5108085;28;20201;-82
2021/11/29 09:37:36;;;;;;;17.03;10.50;;;1.80;99.90;;;;;;5104149;28;20206;-81
2021/11/29 09:40:07;;;;;;;14.23;9.80;;;1.80;99.90;;;;;;5109385;28;20166;-82
2021/11/29 09:42:33;;;;;;;18.80;9.70;;;1.70;99.90;;;;;;5119138;28;20196;-85
2021/11/29 09:44:59;;;;;;;17.50;10.73;;;1.70;99.90;;;;;;5103900;28;20206;-83
2021/11/29 09:47:25;;;;;;;16.03;9.70;;;1.70;99.90;;;;;;5119797;28;20240;-82
2021/11/29 09:49:55;;;;;;;20.30;11.70;;;1.70;99.90;;;;;;5096941;28;20174;-81
2021/11/29 09:52:22;;;;;;;25.87;10.87;;;1.80;99.90;;;;;;5095715;28;20182;-81
2021/11/29 09:54:48;;;;;;;20.87;12.43;;;1.80;99.90;;;;;;5084571;28;20183;-80
2021/11/29 09:57:14;;;;;;;27.53;16.83;;;1.80;99.90;;;;;;5091839;28;20190;-80
2021/11/29 09:59:40;;;;;;;20.47;12.00;;;1.80;99.90;;;;;;5093083;28;20178;-80
2021/11/29 10:02:12;;;;;;;20.17;12.57;;;1.70;99.90;;;;;;5094630;28;20233;-78
2021/11/29 10:04:38;;;;;;;24.57;14.43;;;1.60;99.90;;;;;;5094995;28;20174;-80
2021/11/29 10:07:04;;;;;;;22.27;12.47;;;1.70;99.90;;;;;;5095056;28;20190;-79
2021/11/29 10:09:36;;;;;;;23.47;12.77;;;1.60;99.90;;;;;;5060397;28;20324;-81
2021/11/29 10:12:10;;;;;;;21.60;11.70;;;1.60;99.90;;;;;;5090211;28;20309;-80
2021/11/29 10:14:38;;;;;;;18.13;11.10;;;1.70;99.90;;;;;;5094835;28;20650;-80
2021/11/29 10:17:04;;;;;;;19.97;12.37;;;1.60;99.90;;;;;;5095192;28;20206;-81
2021/11/29 10:19:37;;;;;;;20.87;11.87;;;1.70;99.90;;;;;;5088344;28;20201;-80
2021/11/29 10:22:23;;;;;;;20.93;11.73;;;1.60;99.90;;;;;;5085161;28;20174;-81
2021/11/29 10:24:51;;;;;;;18.27;11.20;;;1.60;99.90;;;;;;5085244;28;20369;-81
2021/11/29 10:27:18;;;;;;;22.60;12.77;;;1.60;99.90;;;;;;5082357;28;20179;-81
2021/11/29 10:29:55;;;;;;;22.53;13.20;;;1.60;99.90;;;;;;5084809;28;20210;-81
2021/11/29 10:32:30;;;;;;;22.97;12.50;;;1.80;99.90;;;;;;5087171;28;20756;-81
2021/11/29 10:34:56;;;;;;;18.83;11.93;;;;;;;;;;5089545;28;20217;-78
2021/11/29 10:37:34;;;;;;;17.80;11.07;;;1.50;99.90;;;;;;5078244;28;20257;-78
2021/11/29 10:40:00;;;;;;;20.00;11.77;;;1.80;99.90;;;;;;5082989;28;20174;-81
2021/11/29 10:42:28;;;;;;;19.70;11.27;;;1.70;99.90;;;;;;5082909;28;20651;-81
2021/11/29 10:44:54;;;;;;;20.50;11.83;;;1.50;99.90;;;;;;5086678;28;20285;-82
2021/11/29 10:47:22;;;;;;;18.97;12.57;;;1.80;99.90;;;;;;5079806;28;20201;-82
2021/11/29 10:49:54;;;;;;;19.10;10.93;;;1.80;99.90;;;;;;5083400;28;20182;-85
2021/11/29 10:52:23;;;;;;;16.43;9.53;;;1.70;99.90;;;;;;5085078;28;20178;-81
2021/11/29 10:54:49;;;;;;;20.77;10.93;;;;;;;;;;5079785;28;20187;-85
2021/11/29 10:57:17;;;;;;;21.43;12.43;;;1.70;99.90;;;;;;5083565;28;20289;-82
2021/11/29 10:59:45;;;;;;;24.67;13.17;;;1.70;99.90;;;;;;5085878;28;20190;-79
2021/11/29 11:02:14;;;;;;;26.93;13.47;;;1.70;99.90;;;;;;5082716;28;20180;-82
2021/11/29 11:04:43;;;;;;;21.50;13.73;;;1.60;99.90;;;;;;5080965;28;20627;-83
2021/11/29 11:07:15;;;;;;;20.97;11.73;;;1.70;99.90;;;;;;5081721;28;20626;-82
2021/11/29 11:09:54;;;;;;;20.73;11.80;;;1.70;99.90;;;;;;5079528;28;20190;-82
2021/11/29 11:12:24;;;;;;;21.90;11.93;;;1.70;99.90;;;;;;5086390;28;20218;-84
2021/11/29 11:14:53;;;;;;;16.53;10.53;;;1.60;99.90;;;;;;5083597;28;20183;-83
2021/11/29 11:17:24;;;;;;;25.90;13.27;;;1.70;99.90;;;;;;5086749;28;20185;-82
2021/11/29 11:19:55;;;;;;;25.03;12.43;;;1.60;99.90;;;;;;5086098;28;20647;-81
2021/11/29 11:22:32;;;;;;;22.83;14.37;;;1.70;99.90;;;;;;5084457;28;20185;-81
2021/11/29 11:25:27;;;;;;;26.07;13.80;;;1.70;99.90;;;;;;5082590;28;20190;-81
2021/11/29 11:27:55;;;;;;;28.83;15.23;;;1.60;99.90;;;;;;5086145;28;20257;-81
2021/11/29 11:30:21;;;;;;;21.43;12.00;;;1.60;99.90;;;;;;5080633;28;20172;-80
2021/11/29 11:32:58;;;;;;;20.70;12.27;;;1.70;99.90;;;;;;5082005;28;20662;-80
2021/11/29 11:35:30;;;;;;;21.27;11.80;;;1.70;99.90;;;;;;5076931;28;20178;-81
2021/11/29 11:37:58;;;;;;;19.30;11.10;;;1.70;99.90;;;;;;5081803;28;20523;-83
2021/11/29 11:40:27;;;;;;;15.03;9.83;;;1.70;99.90;;;;;;5082924;28;20224;-80
2021/11/29 11:42:54;;;;;;;18.17;11.23;;;1.60;99.90;;;;;;5079788;28;20166;-80
2021/11/29 11:45:24;;;;;;;20.40;12.23;;;1.60;99.90;;;;;;5066495;28;20202;-81
2021/11/29 11:47:51;;;;;;;22.57;13.57;;;1.50;99.90;;;;;;5081971;28;20202;-80
2021/11/29 11:50:20;;;;;;;21.93;11.13;;;1.60;99.90;;;;;;5081027;28;20501;-80
2021/11/29 11:52:45;;;;;;;23.83;15.03;;;1.70;99.90;;;;;;5081395;28;20179;-80
2021/11/29 11:55:15;;;;;;;21.77;12.03;;;1.70;99.90;;;;;;5084047;28;20871;-81
2021/11/29 11:57:42;;;;;;;22.00;11.50;;;1.60;99.90;;;;;;5080123;28;20179;-82
2021/11/29 12:00:22;;;;;;;28.17;14.10;;;1.60;99.90;;;;;;5065257;28;20178;-80
2021/11/29 12:03:10;;;;;;;25.83;13.90;;;1.80;99.90;;;;;;5086540;28;20163;-81
2021/11/29 12:05:57;;;;;;;26.20;11.97;;;3.50;99.90;;;;;;5081638;28;20654;-81
2021/11/29 12:08:30;;;;;;;30.00;13.33;;;1.60;99.90;;;;;;5080383;28;20232;-84
2021/11/29 12:10:56;;;;;;;27.13;16.87;;;;;;;;;;5086447;28;20242;-83
2021/11/29 12:13:24;;;;;;;32.50;13.60;;;;;;;;;;5081682;28;20182;-83
2021/11/29 12:15:56;;;;;;;32.30;17.73;;;1.60;99.90;;;;;;5078916;28;20187;-81
2021/11/29 12:18:33;;;;;;;43.77;16.00;;;1.60;99.90;;;;;;5081004;28;20221;-81
2021/11/29 12:21:19;;;;;;;22.50;10.10;;;1.70;99.90;;;;;;5077814;28;20174;-81
2021/11/29 12:23:45;;;;;;;40.00;17.07;;;;;;;;;;5079937;28;20202;-80
2021/11/29 12:26:11;;;;;;;35.60;14.90;;;;;;;;;;5083432;28;20238;-81
2021/11/29 12:28:40;;;;;;;43.23;16.93;;;1.40;99.90;;;;;;5073461;28;20608;-82
2021/11/29 12:31:32;;;;;;;37.03;16.00;;;1.50;99.90;;;;;;5091439;28;20261;-83
2021/11/29 12:34:04;;;;;;;41.47;17.03;;;1.50;99.90;;;;;;5087084;28;20197;-80
2021/11/29 12:36:58;;;;;;;36.27;15.93;;;1.50;99.90;;;;;;5073544;28;20528;-82
2021/11/29 12:39:49;;;;;;;33.53;14.07;;;1.40;99.90;;;;;;5077137;28;20186;-80
2021/11/29 12:42:23;;;;;;;39.73;16.43;;;1.40;99.90;;;;;;5083515;28;20182;-82
2021/11/29 12:44:53;;;;;;;28.70;15.17;;;1.40;99.90;;;;;;5082990;28;20192;-80
2021/11/29 12:47:30;;;;;;;33.27;17.37;;;1.40;99.90;;;;;;5083908;28;20182;-81
2021/11/29 12:49:58;;;;;;;36.23;15.10;;;1.50;99.90;;;;;;5089276;28;20199;-82
2021/11/29 12:52:35;;;;;;;34.47;15.30;;;1.50;99.90;;;;;;5092423;28;20563;-79
2021/11/29 12:55:03;;;;;;;31.57;16.23;;;1.40;99.90;;;;;;5079730;28;20174;-80